Time;durP1;ratioP1;P1;durP2;ratioP2;P2;SDS_P1;SDS_P2;PMS_P1;PMS_P2;Temp;Humidity;BMP_temperature;BMP_pressure;BME280_temperature;BME280_humidity;BME280_pressure;Samples;Min_cycle;Max_cycle;Signal;HPM_P1;HPM_P2
2023/07/12 00:02:58;;;;;;;;;;;;;;;;;;;;;
2023/07/12 00:05:54;;;;;;;11.82;2.30;;;17.90;99.90;;;;;;5011974;28;20143;-57
2023/07/12 00:12:22;;;;;;;;;;;;;;;;;;;;;
2023/07/12 00:15:03;;;;;;;13.27;3.10;;;17.80;99.90;;;;;;4999463;28;20053;-54
2023/07/12 00:17:33;;;;;;;15.07;3.42;;;17.70;99.90;;;;;;5032090;28;20041;-52
2023/07/12 00:20:05;;;;;;;10.38;2.75;;;17.70;99.90;;;;;;5043271;28;20056;-56
2023/07/12 00:23:11;;;;;;;12.63;2.70;;;17.70;99.90;;;;;;5074244;28;20089;-55
2023/07/12 00:26:04;;;;;;;10.68;2.45;;;17.70;99.90;;;;;;5057390;28;20091;-56
2023/07/12 00:28:58;;;;;;;8.02;2.33;;;17.70;99.90;;;;;;5031978;28;20103;-54
2023/07/12 00:35:38;;;;;;;10.73;2.70;;;17.60;99.90;;;;;;5032046;28;20040;-56
2023/07/12 00:38:05;;;;;;;10.10;2.60;;;17.60;99.90;;;;;;5032243;28;20069;-56
2023/07/12 00:44:13;;;;;;;12.05;2.75;;;17.50;99.90;;;;;;5030501;28;20041;-57
2023/07/12 00:51:01;;;;;;;9.40;2.30;;;17.40;99.90;;;;;;5011462;28;20040;-55
2023/07/12 00:53:44;;;;;;;13.02;2.50;;;17.30;99.90;;;;;;4981343;28;20038;-58
2023/07/12 00:56:12;;;;;;;10.93;2.40;;;17.30;99.90;;;;;;4992228;28;20038;-57
2023/07/12 00:58:46;;;;;;;10.45;2.20;;;17.30;99.90;;;;;;4992008;28;20128;-52
2023/07/12 01:08:13;;;;;;;9.70;2.50;;;17.30;99.90;;;;;;4977880;28;20110;-59
2023/07/12 01:11:12;;;;;;;11.52;2.25;;;17.20;99.90;;;;;;4994324;28;20060;-54
2023/07/12 01:16:57;;;;;;;8.23;2.20;;;17.20;99.90;;;;;;4982335;28;20034;-57
2023/07/12 01:22:54;;;;;;;11.77;2.25;;;17.20;99.90;;;;;;5080504;28;20040;-53
2023/07/12 01:25:21;;;;;;;10.90;2.58;;;17.30;99.90;;;;;;5080183;28;20039;-54
2023/07/12 01:27:50;;;;;;;12.20;2.65;;;17.30;99.90;;;;;;5062061;28;20127;-54
2023/07/12 01:30:17;;;;;;;10.73;2.50;;;17.20;99.90;;;;;;5062430;28;20071;-53
2023/07/12 01:32:44;;;;;;;10.93;2.30;;;17.20;99.90;;;;;;5062079;28;20044;-57
2023/07/12 01:35:12;;;;;;;9.05;2.67;;;17.20;99.90;;;;;;5079822;28;20345;-58
2023/07/12 01:37:39;;;;;;;12.48;2.63;;;17.20;99.90;;;;;;5062137;28;20072;-55
2023/07/12 01:40:09;;;;;;;9.77;2.30;;;17.20;99.90;;;;;;5079660;28;20044;-57
2023/07/12 01:42:41;;;;;;;10.32;2.65;;;17.20;99.90;;;;;;5062193;28;20045;-55
2023/07/12 01:45:09;;;;;;;9.13;2.60;;;17.20;99.90;;;;;;5062325;28;20098;-55
2023/07/12 01:47:39;;;;;;;9.75;2.47;;;17.20;99.90;;;;;;5062021;28;20131;-53
2023/07/12 01:50:07;;;;;;;10.75;2.47;;;17.20;99.90;;;;;;5061761;28;20056;-57
2023/07/12 01:52:39;;;;;;;8.77;2.53;;;17.20;99.90;;;;;;5079899;28;20036;-55
2023/07/12 01:55:07;;;;;;;7.95;2.30;;;17.10;99.90;;;;;;5062208;28;20067;-56
2023/07/12 01:57:46;;;;;;;9.85;2.40;;;17.10;99.90;;;;;;5062293;28;20048;-58
2023/07/12 02:00:52;;;;;;;8.73;2.22;;;17.10;99.90;;;;;;5047060;28;20055;-55
2023/07/12 02:03:19;;;;;;;9.07;2.55;;;17.10;99.90;;;;;;5061820;28;20053;-55
2023/07/12 02:06:10;;;;;;;9.45;2.20;;;17.10;99.90;;;;;;5068687;28;20088;-56
2023/07/12 02:08:37;;;;;;;11.63;2.90;;;17.00;99.90;;;;;;5061476;28;20078;-57
2023/07/12 02:11:56;;;;;;;8.98;2.53;;;17.00;99.90;;;;;;5018428;28;20053;-56
2023/07/12 02:14:25;;;;;;;11.00;2.60;;;16.90;99.90;;;;;;5017326;28;20045;-58
2023/07/12 02:17:12;;;;;;;12.27;2.85;;;16.90;99.90;;;;;;4997064;28;20125;-59
2023/07/12 02:19:39;;;;;;;9.45;2.50;;;16.80;99.90;;;;;;5014749;28;20111;-57
2023/07/12 02:22:07;;;;;;;8.93;2.22;;;16.80;99.90;;;;;;5014554;28;20069;-58
2023/07/12 02:25:15;;;;;;;10.00;2.72;;;16.80;99.90;;;;;;4994491;28;20054;-58
2023/07/12 02:28:31;;;;;;;8.68;2.40;;;16.80;99.90;;;;;;5025085;28;20047;-55
2023/07/12 02:35:27;;;;;;;;;;;;;;;;;;;;;
2023/07/12 02:52:14;;;;;;;7.78;2.58;;;16.70;99.90;;;;;;5075904;28;20150;-55
2023/07/12 02:59:26;;;;;;;;;;;;;;;;;;;;;
2023/07/12 03:01:54;;;;;;;8.70;2.55;;;16.40;99.90;;;;;;5073354;28;20131;-56
2023/07/12 03:04:53;;;;;;;5.88;2.10;;;16.40;99.90;;;;;;5013243;28;20054;-55
2023/07/12 03:07:31;;;;;;;6.97;2.33;;;16.30;99.90;;;;;;5012766;28;20054;-55
2023/07/12 03:13:19;;;;;;;7.88;2.63;;;16.20;99.90;;;;;;5013417;28;20052;-55
2023/07/12 03:15:46;;;;;;;8.63;2.80;;;16.10;99.90;;;;;;5040725;28;20076;-55
2023/07/12 03:18:13;;;;;;;8.20;2.38;;;16.00;99.90;;;;;;5075346;28;20039;-56
2023/07/12 03:20:42;;;;;;;9.88;2.58;;;16.00;99.90;;;;;;5075693;28;20051;-58
2023/07/12 03:23:12;;;;;;;7.82;2.42;;;15.90;99.90;;;;;;5075435;28;20036;-56
2023/07/12 03:25:38;;;;;;;9.98;2.53;;;15.90;99.90;;;;;;5057037;28;20048;-55
2023/07/12 03:28:14;;;;;;;6.95;2.53;;;15.80;99.90;;;;;;5056411;28;20094;-54
2023/07/12 03:30:42;;;;;;;6.03;2.30;;;15.80;99.90;;;;;;5074879;28;20033;-51
2023/07/12 03:33:09;;;;;;;6.68;2.30;;;15.70;99.90;;;;;;5077044;28;20040;-49
2023/07/12 03:35:35;;;;;;;9.43;2.60;;;15.70;99.90;;;;;;5078128;28;20041;-52
2023/07/12 03:38:02;;;;;;;5.80;2.35;;;15.70;99.90;;;;;;5077675;28;20063;-51
2023/07/12 03:40:29;;;;;;;5.47;2.45;;;15.70;99.90;;;;;;5076095;28;20484;-53
2023/07/12 03:43:00;;;;;;;8.70;2.47;;;15.60;99.90;;;;;;5073870;28;20084;-55
2023/07/12 03:48:46;;;;;;;6.95;2.45;;;15.50;99.90;;;;;;5044012;28;20071;-55
2023/07/12 03:51:28;;;;;;;7.10;2.83;;;15.50;99.90;;;;;;5056584;28;20048;-54
2023/07/12 03:54:06;;;;;;;6.85;2.60;;;15.40;99.90;;;;;;5073673;28;20052;-55
2023/07/12 04:06:03;;;;;;;7.53;2.28;;;15.30;99.90;;;;;;4973859;28;20161;-52
2023/07/12 04:08:47;;;;;;;5.75;2.20;;;15.30;99.90;;;;;;4974105;28;20417;-57
2023/07/12 04:15:15;;;;;;;8.95;2.35;;;15.30;99.90;;;;;;4896335;29;20440;-55
2023/07/12 04:17:42;;;;;;;5.43;2.28;;;15.30;99.90;;;;;;4884038;28;20048;-55
2023/07/12 04:20:36;;;;;;;5.88;2.60;;;15.30;99.90;;;;;;4973977;28;20130;-56
2023/07/12 04:26:22;;;;;;;;;;;;;;;;;;;;;
2023/07/12 04:30:03;;;;;;;;;;;;;;;;;;;;;
2023/07/12 04:36:13;;;;;;;6.82;2.40;;;15.30;99.90;;;;;;4973197;28;20069;-58
2023/07/12 04:38:40;;;;;;;9.80;2.75;;;15.30;99.90;;;;;;4973327;28;20129;-57
2023/07/12 04:41:45;;;;;;;;;;;;;;;;;;;;;
2023/07/12 04:44:40;;;;;;;4.68;2.35;;;15.30;99.90;;;;;;4971454;28;20042;-57
2023/07/12 04:48:02;;;;;;;6.15;2.22;;;15.40;99.90;;;;;;5004562;28;20060;-56
2023/07/12 04:54:09;;;;;;;7.35;2.25;;;15.40;99.90;;;;;;5012329;28;20092;-55
2023/07/12 05:00:02;;;;;;;10.70;2.42;;;15.50;99.90;;;;;;4952893;28;20128;-54
2023/07/12 05:02:29;;;;;;;9.02;2.45;;;15.50;99.90;;;;;;4953639;28;20134;-55
2023/07/12 05:04:59;;;;;;;8.48;2.17;;;15.60;99.90;;;;;;4953683;28;20043;-55
2023/07/12 05:07:31;;;;;;;7.78;2.00;;;15.70;99.90;;;;;;4973773;28;20050;-53
2023/07/12 05:10:16;;;;;;;6.00;2.08;;;15.80;99.90;;;;;;4986057;28;20108;-57
2023/07/12 05:12:46;;;;;;;10.75;2.20;;;16.00;99.90;;;;;;4992157;28;20053;-54
2023/07/12 05:15:13;;;;;;;6.70;2.10;;;16.10;99.90;;;;;;4992515;28;20058;-57
2023/07/12 05:17:40;;;;;;;5.57;1.55;;;16.20;99.90;;;;;;4992256;28;20169;-57
2023/07/12 05:20:07;;;;;;;4.88;1.70;;;16.20;99.90;;;;;;4992245;28;20050;-49
2023/07/12 05:22:34;;;;;;;4.78;1.67;;;16.40;99.90;;;;;;4992201;28;20190;-55
2023/07/12 05:25:01;;;;;;;7.03;2.13;;;16.40;99.90;;;;;;4992635;28;20049;-52
2023/07/12 05:27:37;;;;;;;6.15;2.00;;;16.50;99.90;;;;;;4992116;28;20137;-54
2023/07/12 05:30:14;;;;;;;8.10;2.15;;;16.50;99.90;;;;;;4992898;28;20046;-55
2023/07/12 05:32:41;;;;;;;5.50;1.77;;;16.60;99.90;;;;;;4976066;28;20052;-56
2023/07/12 05:42:16;;;;;;;7.80;1.95;;;16.90;99.90;;;;;;4966051;28;20026;-55
2023/07/12 05:44:44;;;;;;;7.38;1.73;;;16.80;99.90;;;;;;4972417;28;20039;-57
2023/07/12 05:47:16;;;;;;;8.23;2.08;;;16.80;99.90;;;;;;4972476;28;20047;-55
2023/07/12 05:49:43;;;;;;;11.85;1.90;;;16.80;99.90;;;;;;4972980;28;20069;-57
2023/07/12 05:55:53;;;;;;;9.95;2.40;;;16.80;99.90;;;;;;4976737;28;20062;-58
2023/07/12 05:59:00;;;;;;;;;;;;;;;;;;;;;
2023/07/12 06:02:02;;;;;;;7.32;1.98;;;16.90;99.90;;;;;;4935476;28;20046;-59
2023/07/12 06:08:20;;;;;;;6.72;1.77;;;16.90;99.90;;;;;;4937765;29;20551;-53
2023/07/12 06:11:02;;;;;;;6.75;1.80;;;17.00;99.90;;;;;;4928978;29;20052;-57
2023/07/12 06:13:32;;;;;;;8.15;2.22;;;17.00;99.90;;;;;;4937541;29;20063;-52
2023/07/12 06:16:09;;;;;;;9.13;2.00;;;17.10;99.90;;;;;;4937273;29;20056;-53
2023/07/12 06:18:37;;;;;;;6.43;1.75;;;17.20;99.90;;;;;;4937467;29;20063;-55
2023/07/12 06:21:29;;;;;;;7.93;1.90;;;17.30;99.90;;;;;;4937316;29;20110;-55
2023/07/12 06:24:35;;;;;;;8.77;2.17;;;17.30;99.90;;;;;;4923637;29;20095;-54
2023/07/12 06:27:10;;;;;;;8.48;2.45;;;17.40;99.90;;;;;;4936911;29;20137;-56
2023/07/12 06:29:52;;;;;;;9.10;2.00;;;17.50;99.90;;;;;;4955880;28;20059;-56
2023/07/12 06:32:19;;;;;;;7.10;2.08;;;17.60;99.90;;;;;;4975496;28;20048;-53
2023/07/12 06:34:46;;;;;;;7.45;2.22;;;17.70;99.90;;;;;;4959274;28;20051;-57
2023/07/12 06:37:22;;;;;;;7.13;1.88;;;17.80;99.90;;;;;;4975617;28;20046;-55
2023/07/12 06:43:58;;;;;;;7.10;1.95;;;17.80;99.90;;;;;;5053905;28;20094;-53
2023/07/12 06:46:46;;;;;;;9.93;2.40;;;17.90;99.90;;;;;;5055078;28;20060;-57
2023/07/12 06:49:22;;;;;;;7.97;1.85;;;17.80;99.90;;;;;;5056553;28;20476;-54
2023/07/12 06:51:53;;;;;;;10.10;2.17;;;17.70;99.90;;;;;;5056213;28;20106;-58
2023/07/12 06:54:41;;;;;;;6.45;2.10;;;17.80;99.90;;;;;;5055978;28;20041;-57
2023/07/12 06:57:30;;;;;;;8.27;1.95;;;17.90;99.90;;;;;;5056065;28;20117;-56
2023/07/12 06:59:57;;;;;;;9.15;1.80;;;17.80;99.90;;;;;;5041182;28;20102;-53
2023/07/12 07:02:52;;;;;;;6.55;2.17;;;17.80;99.90;;;;;;5076566;28;20051;-59
2023/07/12 07:05:36;;;;;;;8.13;1.80;;;17.80;99.90;;;;;;5077793;28;20049;-58
2023/07/12 07:08:20;;;;;;;9.35;2.20;;;17.90;99.90;;;;;;5075863;28;20048;-59
2023/07/12 07:14:27;;;;;;;9.40;2.08;;;17.80;99.90;;;;;;5066219;28;20230;-59
2023/07/12 07:16:54;;;;;;;9.27;2.00;;;17.80;99.90;;;;;;5075093;28;20048;-57
2023/07/12 07:19:59;;;;;;;7.25;1.83;;;17.90;99.90;;;;;;5061448;28;20411;-54
2023/07/12 07:22:30;;;;;;;7.80;2.10;;;17.90;99.90;;;;;;5075483;28;20065;-56
2023/07/12 07:24:57;;;;;;;10.27;2.55;;;17.90;99.90;;;;;;5075241;28;20114;-58
2023/07/12 07:27:26;;;;;;;8.20;2.10;;;17.90;99.90;;;;;;5041077;28;20134;-55
2023/07/12 07:29:55;;;;;;;7.32;2.10;;;18.00;99.90;;;;;;5057563;28;20045;-56
2023/07/12 07:32:22;;;;;;;10.80;1.83;;;18.10;99.90;;;;;;5074993;28;20044;-56
2023/07/12 07:35:11;;;;;;;7.22;2.40;;;18.20;99.90;;;;;;5042426;28;20087;-56
2023/07/12 07:37:38;;;;;;;5.63;2.20;;;18.20;99.90;;;;;;5056922;28;20052;-61
2023/07/12 07:40:07;;;;;;;7.18;2.10;;;18.30;99.90;;;;;;5075049;28;20037;-56
2023/07/12 07:42:33;;;;;;;9.27;2.17;;;18.50;99.90;;;;;;5072660;28;20482;-53
2023/07/12 07:45:00;;;;;;;5.72;2.13;;;18.70;99.90;;;;;;5049389;28;20044;-49
2023/07/12 07:47:27;;;;;;;8.00;2.10;;;18.70;99.90;;;;;;5058935;28;20064;-51
2023/07/12 07:49:54;;;;;;;9.98;2.58;;;18.70;99.70;;;;;;5054553;28;20132;-52
2023/07/12 07:52:20;;;;;;;7.65;1.73;;;18.80;99.40;;;;;;5056946;28;20072;-47
2023/07/12 07:54:47;;;;;;;9.40;2.00;;;18.80;99.70;;;;;;5056744;28;20049;-49
2023/07/12 07:57:14;;;;;;;7.75;1.70;;;19.00;99.80;;;;;;5056496;28;20065;-52
2023/07/12 07:59:41;;;;;;;4.43;1.40;;;19.20;99.10;;;;;;5052957;28;20380;-48
2023/07/12 08:02:10;;;;;;;7.57;1.48;;;19.40;98.80;;;;;;5072799;28;20487;-45
2023/07/12 08:04:37;;;;;;;6.13;1.73;;;19.60;98.40;;;;;;5073372;28;20044;-47
2023/07/12 08:07:04;;;;;;;8.13;1.75;;;19.60;98.00;;;;;;5073380;28;20227;-49
2023/07/12 08:09:31;;;;;;;4.47;1.40;;;19.50;97.90;;;;;;5073143;28;20045;-47
2023/07/12 08:11:58;;;;;;;5.50;1.75;;;19.40;98.10;;;;;;5073256;28;20121;-47
2023/07/12 08:14:24;;;;;;;7.50;1.88;;;19.20;98.00;;;;;;5070834;28;20045;-49
2023/07/12 08:16:52;;;;;;;6.38;1.92;;;19.10;98.50;;;;;;5072792;28;20033;-47
2023/07/12 08:19:19;;;;;;;6.15;1.70;;;19.10;98.30;;;;;;5072916;28;20090;-52
2023/07/12 08:21:47;;;;;;;6.80;2.05;;;19.10;98.00;;;;;;5073008;28;20040;-46
2023/07/12 08:24:14;;;;;;;6.68;1.40;;;19.20;97.50;;;;;;5073010;28;20476;-48
2023/07/12 08:26:41;;;;;;;5.90;1.70;;;19.10;96.80;;;;;;5073115;28;20044;-51
2023/07/12 08:29:24;;;;;;;8.20;1.63;;;19.10;96.90;;;;;;5073319;28;20116;-47
2023/07/12 08:31:50;;;;;;;8.32;1.77;;;19.10;97.50;;;;;;5073222;28;20039;-47
2023/07/12 08:34:20;;;;;;;6.10;1.80;;;19.10;97.60;;;;;;5071295;28;20117;-50
2023/07/12 08:36:46;;;;;;;5.22;1.50;;;19.20;97.40;;;;;;5072820;28;20051;-50
2023/07/12 08:39:13;;;;;;;4.78;1.85;;;19.30;97.20;;;;;;5072795;28;20062;-48
2023/07/12 08:41:40;;;;;;;7.00;2.60;;;19.50;97.60;;;;;;5072890;28;20087;-47
2023/07/12 08:44:07;;;;;;;6.75;1.60;;;19.70;97.30;;;;;;5072282;28;20499;-48
2023/07/12 08:46:35;;;;;;;5.90;1.70;;;19.70;96.70;;;;;;5071903;28;20472;-47
2023/07/12 08:49:03;;;;;;;4.80;1.40;;;19.60;96.80;;;;;;5072611;28;20051;-49
2023/07/12 08:51:30;;;;;;;7.20;1.70;;;19.40;95.60;;;;;;5071259;28;20045;-46
2023/07/12 08:53:57;;;;;;;5.40;1.38;;;19.30;95.80;;;;;;5072392;28;20090;-46
2023/07/12 08:56:24;;;;;;;8.77;1.58;;;19.30;96.00;;;;;;5071589;28;20464;-48
2023/07/12 08:58:51;;;;;;;5.97;1.70;;;19.40;96.00;;;;;;5072683;28;20040;-50
2023/07/12 09:01:17;;;;;;;6.45;1.67;;;19.50;95.70;;;;;;5072539;28;20053;-48
2023/07/12 09:03:45;;;;;;;7.05;1.70;;;19.60;95.90;;;;;;5072508;28;20063;-49
2023/07/12 09:06:12;;;;;;;7.07;1.80;;;19.70;96.10;;;;;;5069928;28;20036;-50
2023/07/12 09:08:39;;;;;;;7.55;1.58;;;19.80;95.70;;;;;;5072867;28;20086;-46
2023/07/12 09:11:06;;;;;;;6.30;1.67;;;19.90;95.60;;;;;;5072894;28;20044;-51
2023/07/12 09:13:33;;;;;;;6.63;1.30;;;20.00;95.40;;;;;;5072625;28;20484;-53
2023/07/12 09:16:00;;;;;;;7.68;1.55;;;20.10;95.30;;;;;;5072646;28;20040;-49
2023/07/12 09:18:28;;;;;;;4.45;1.75;;;20.30;95.80;;;;;;5072912;28;20040;-49
2023/07/12 09:20:55;;;;;;;5.50;1.35;;;20.50;95.40;;;;;;5073278;28;20562;-50
2023/07/12 09:23:22;;;;;;;5.82;1.48;;;20.50;95.00;;;;;;5073106;28;20045;-52
2023/07/12 09:25:48;;;;;;;6.78;1.73;;;20.40;94.90;;;;;;5075281;28;20040;-49
2023/07/12 09:28:15;;;;;;;7.90;1.33;;;20.30;95.10;;;;;;5077139;28;20430;-48
2023/07/12 09:30:42;;;;;;;5.97;1.70;;;20.20;94.90;;;;;;5072931;28;20039;-49
2023/07/12 09:33:10;;;;;;;8.32;1.92;;;19.90;95.30;;;;;;5076244;28;20040;-48
2023/07/12 09:35:37;;;;;;;7.47;1.73;;;19.80;97.80;;;;;;5076301;28;20050;-49
2023/07/12 09:38:06;;;;;;;6.43;1.77;;;19.70;98.90;;;;;;5076293;28;20044;-51
2023/07/12 09:40:33;;;;;;;7.28;1.92;;;19.60;98.60;;;;;;5076168;28;20059;-49
2023/07/12 09:43:00;;;;;;;6.82;1.70;;;19.60;98.30;;;;;;5075920;28;20045;-47
2023/07/12 09:45:27;;;;;;;7.55;2.03;;;19.40;97.90;;;;;;5075998;28;20067;-48
2023/07/12 09:47:53;;;;;;;7.13;1.50;;;19.40;98.10;;;;;;5075798;28;20047;-48
2023/07/12 09:50:20;;;;;;;7.35;1.60;;;19.50;97.70;;;;;;5075081;28;20396;-49
2023/07/12 09:52:47;;;;;;;7.03;1.60;;;19.50;97.10;;;;;;5075843;28;20053;-51
2023/07/12 09:55:14;;;;;;;9.40;1.90;;;19.50;97.20;;;;;;5075642;28;20048;-47
2023/07/12 09:57:41;;;;;;;4.82;1.25;;;19.60;97.10;;;;;;5075978;28;20044;-48
2023/07/12 10:00:07;;;;;;;5.82;1.60;;;19.80;97.20;;;;;;5072512;28;20043;-50
2023/07/12 10:02:34;;;;;;;6.28;1.60;;;19.90;96.30;;;;;;5075617;28;20076;-50
2023/07/12 10:05:01;;;;;;;5.82;1.58;;;20.10;96.80;;;;;;5075822;28;20048;-48
2023/07/12 10:07:28;;;;;;;4.78;1.33;;;20.20;97.10;;;;;;5076064;28;20079;-49
2023/07/12 10:09:55;;;;;;;5.75;1.33;;;20.40;96.40;;;;;;5075764;28;20052;-50
2023/07/12 10:12:23;;;;;;;4.20;1.48;;;20.40;95.80;;;;;;5075965;28;20404;-49
2023/07/12 10:14:50;;;;;;;4.72;1.30;;;20.40;95.40;;;;;;5074763;28;20405;-49
2023/07/12 10:17:17;;;;;;;5.20;1.58;;;20.30;95.80;;;;;;5075669;28;20051;-49
2023/07/12 10:19:44;;;;;;;3.92;1.40;;;20.30;96.60;;;;;;5075934;28;20033;-48
2023/07/12 10:22:11;;;;;;;5.50;1.40;;;20.30;96.40;;;;;;5075291;28;20037;-51
2023/07/12 10:24:37;;;;;;;4.07;1.30;;;20.30;96.40;;;;;;5075519;28;20432;-52
2023/07/12 10:27:04;;;;;;;4.97;1.10;;;20.20;96.50;;;;;;5075774;28;20476;-47
2023/07/12 10:29:31;;;;;;;4.30;1.10;;;20.20;96.20;;;;;;5075770;28;20047;-50
2023/07/12 10:31:58;;;;;;;3.92;1.40;;;20.10;95.90;;;;;;5075828;28;20033;-51
2023/07/12 10:34:25;;;;;;;6.72;1.65;;;20.20;95.60;;;;;;5075785;28;20056;-51
2023/07/12 10:36:55;;;;;;;3.63;1.10;;;20.20;95.60;;;;;;5075096;28;20043;-47
2023/07/12 10:39:22;;;;;;;5.15;1.20;;;20.10;95.80;;;;;;5075784;28;20533;-48
2023/07/12 10:41:49;;;;;;;3.67;1.30;;;20.10;95.60;;;;;;5075720;28;20039;-49
2023/07/12 10:44:16;;;;;;;7.53;1.52;;;20.00;95.60;;;;;;5075588;28;20032;-47
2023/07/12 10:46:42;;;;;;;5.22;1.40;;;19.90;96.00;;;;;;5074018;28;20060;-47
2023/07/12 10:49:09;;;;;;;5.93;1.35;;;19.90;96.00;;;;;;5075182;28;20493;-49
2023/07/12 10:51:36;;;;;;;6.53;1.60;;;20.00;96.20;;;;;;5074970;28;20098;-53
2023/07/12 10:54:03;;;;;;;5.55;1.50;;;20.10;96.00;;;;;;5075097;28;20041;-48
2023/07/12 10:56:30;;;;;;;6.13;1.60;;;20.20;95.50;;;;;;5075025;28;20040;-49
2023/07/12 10:58:57;;;;;;;7.65;1.60;;;20.20;95.60;;;;;;5075013;28;20090;-47
2023/07/12 11:01:24;;;;;;;4.53;1.40;;;20.40;95.40;;;;;;5074871;28;20044;-49
2023/07/12 11:03:50;;;;;;;4.80;1.27;;;20.50;95.30;;;;;;5074539;28;20379;-50
2023/07/12 11:06:17;;;;;;;5.80;1.60;;;20.70;94.70;;;;;;5074557;28;20044;-49
2023/07/12 11:08:44;;;;;;;6.53;1.48;;;20.70;94.00;;;;;;5074943;28;20483;-51
2023/07/12 11:11:11;;;;;;;5.47;1.50;;;20.60;94.30;;;;;;5074732;28;20052;-48
2023/07/12 11:13:38;;;;;;;5.90;1.50;;;20.80;94.40;;;;;;5074788;28;20056;-51
2023/07/12 11:16:04;;;;;;;5.85;1.42;;;20.90;94.40;;;;;;5074445;28;20040;-48
2023/07/12 11:18:31;;;;;;;6.82;1.30;;;21.10;93.70;;;;;;5074438;28;20472;-49
2023/07/12 11:20:58;;;;;;;6.15;1.45;;;21.20;93.80;;;;;;5074748;28;20051;-53
2023/07/12 11:23:25;;;;;;;7.63;1.45;;;21.30;93.30;;;;;;5074621;28;20132;-51
2023/07/12 11:25:57;;;;;;;7.22;1.45;;;21.20;92.80;;;;;;5074122;28;20039;-52
2023/07/12 11:28:24;;;;;;;3.63;1.00;;;21.20;92.20;;;;;;5074623;28;20071;-53
2023/07/12 11:30:51;;;;;;;5.75;1.23;;;21.30;91.90;;;;;;5074574;28;20041;-45
2023/07/12 11:33:17;;;;;;;4.70;1.38;;;21.30;92.10;;;;;;5074358;28;20078;-49
2023/07/12 11:35:44;;;;;;;5.75;1.30;;;21.40;91.00;;;;;;5074083;28;20044;-49
2023/07/12 11:38:11;;;;;;;4.38;1.30;;;21.40;91.50;;;;;;5074344;28;20052;-54
2023/07/12 11:40:38;;;;;;;5.25;1.23;;;21.30;91.00;;;;;;5074164;28;20048;-52
2023/07/12 11:43:04;;;;;;;6.30;1.20;;;21.30;90.80;;;;;;5074273;28;20102;-46
2023/07/12 11:45:31;;;;;;;4.32;0.95;;;21.40;90.20;;;;;;5074016;28;20047;-52
2023/07/12 11:47:58;;;;;;;3.55;1.00;;;21.60;90.00;;;;;;5072917;28;20040;-51
2023/07/12 11:50:25;;;;;;;4.18;1.10;;;21.80;88.80;;;;;;5073439;28;20044;-49
2023/07/12 11:52:52;;;;;;;3.85;1.08;;;21.90;88.30;;;;;;5073474;28;20449;-53
2023/07/12 11:55:18;;;;;;;8.18;1.23;;;21.90;88.40;;;;;;5073356;28;20048;-50
2023/07/12 11:57:45;;;;;;;3.83;0.98;;;22.00;86.40;;;;;;5071856;28;20047;-52
2023/07/12 12:00:12;;;;;;;5.85;1.30;;;22.10;87.20;;;;;;5073856;28;20517;-46
2023/07/12 12:02:41;;;;;;;4.50;0.90;;;22.20;87.60;;;;;;5073917;28;20135;-49
2023/07/12 12:05:08;;;;;;;2.53;0.80;;;22.30;87.90;;;;;;5055827;28;20491;-49
2023/07/12 12:07:35;;;;;;;4.43;1.10;;;22.50;87.10;;;;;;5073710;28;20071;-48
2023/07/12 12:10:02;;;;;;;4.93;0.80;;;22.60;86.40;;;;;;5073960;28;20455;-49
2023/07/12 12:12:32;;;;;;;5.07;1.33;;;22.90;86.50;;;;;;5056439;28;20040;-53
2023/07/12 12:14:59;;;;;;;3.70;1.00;;;22.90;86.00;;;;;;5073917;28;20036;-51
2023/07/12 12:17:26;;;;;;;4.72;1.27;;;23.00;86.50;;;;;;5074229;28;20040;-49
2023/07/12 12:19:53;;;;;;;4.65;1.20;;;23.10;86.30;;;;;;5055926;28;20048;-48
2023/07/12 12:22:20;;;;;;;4.93;1.10;;;23.10;86.30;;;;;;5073592;28;20098;-48
2023/07/12 12:24:48;;;;;;;4.22;1.00;;;23.30;86.70;;;;;;5072677;28;20044;-51
2023/07/12 12:27:14;;;;;;;5.13;0.95;;;23.40;86.10;;;;;;5071847;28;20119;-52
2023/07/12 12:29:46;;;;;;;4.70;1.00;;;23.50;86.30;;;;;;5073820;28;20033;-50
2023/07/12 12:32:15;;;;;;;5.13;1.10;;;23.60;84.50;;;;;;5072707;28;20040;-53
2023/07/12 12:34:51;;;;;;;3.97;1.02;;;23.50;85.50;;;;;;5054615;28;20408;-50
2023/07/12 12:37:18;;;;;;;7.85;1.00;;;23.50;85.30;;;;;;5072782;28;20403;-50
2023/07/12 12:39:47;;;;;;;2.33;0.90;;;23.50;84.50;;;;;;5073400;28;20036;-49
2023/07/12 12:42:14;;;;;;;5.03;1.25;;;23.40;84.20;;;;;;5072707;28;20067;-52
2023/07/12 12:44:41;;;;;;;3.72;0.77;;;23.40;85.20;;;;;;5073155;28;20083;-46
2023/07/12 12:47:07;;;;;;;4.13;1.20;;;23.30;84.90;;;;;;5054673;28;20496;-46
2023/07/12 12:49:44;;;;;;;3.40;1.17;;;23.10;85.40;;;;;;5073342;28;20059;-47
2023/07/12 12:52:13;;;;;;;4.50;0.88;;;23.20;86.50;;;;;;5073331;28;20040;-50
2023/07/12 12:54:43;;;;;;;3.10;0.90;;;23.30;86.60;;;;;;5044379;28;20041;-48
2023/07/12 12:57:12;;;;;;;4.45;1.00;;;23.50;85.60;;;;;;5070567;28;20097;-51
2023/07/12 12:59:41;;;;;;;3.60;1.00;;;23.50;85.20;;;;;;5072519;28;20043;-47
2023/07/12 13:02:11;;;;;;;5.18;0.90;;;23.50;85.40;;;;;;5069440;28;20045;-49
2023/07/12 13:04:41;;;;;;;5.72;1.08;;;23.40;85.00;;;;;;5072679;28;20463;-50
2023/07/12 13:07:10;;;;;;;4.10;0.82;;;23.30;85.40;;;;;;5073256;28;20028;-51
2023/07/12 13:09:49;;;;;;;4.90;0.90;;;23.40;86.30;;;;;;5072648;28;20041;-47
2023/07/12 13:12:19;;;;;;;5.07;1.10;;;23.50;86.30;;;;;;5067307;28;20372;-53
2023/07/12 13:14:52;;;;;;;3.25;1.10;;;23.50;85.70;;;;;;5072574;28;20044;-45
2023/07/12 13:17:21;;;;;;;5.93;1.05;;;23.30;86.30;;;;;;5072903;28;20048;-47
2023/07/12 13:20:08;;;;;;;3.08;0.90;;;23.20;86.90;;;;;;5072437;28;20070;-46
2023/07/12 13:22:35;;;;;;;3.45;1.00;;;23.00;86.60;;;;;;5073090;28;20038;-47
2023/07/12 13:25:03;;;;;;;5.40;1.23;;;22.90;87.50;;;;;;5072342;28;20396;-47
2023/07/12 13:27:29;;;;;;;5.20;1.25;;;22.90;87.50;;;;;;5072886;28;20033;-48
2023/07/12 13:29:56;;;;;;;3.10;1.00;;;23.00;88.00;;;;;;5072149;28;20054;-48
2023/07/12 13:32:23;;;;;;;4.35;1.10;;;23.10;87.70;;;;;;5072949;28;20086;-47
2023/07/12 13:34:50;;;;;;;5.97;1.50;;;23.20;88.00;;;;;;5072854;28;20049;-50
2023/07/12 13:37:20;;;;;;;7.07;1.55;;;23.10;88.40;;;;;;5072403;28;20032;-47
2023/07/12 13:39:49;;;;;;;7.68;1.48;;;22.90;88.90;;;;;;5072666;28;20044;-50
2023/07/12 13:42:17;;;;;;;5.32;1.20;;;22.80;89.30;;;;;;5071691;28;20052;-46
2023/07/12 13:44:46;;;;;;;5.68;1.52;;;22.80;90.10;;;;;;5071612;28;20037;-51
2023/07/12 13:47:16;;;;;;;4.30;1.23;;;23.00;90.30;;;;;;5071990;28;20033;-47
2023/07/12 13:49:44;;;;;;;6.25;1.40;;;23.20;90.30;;;;;;5072539;28;20045;-51
2023/07/12 13:52:11;;;;;;;4.63;1.65;;;23.50;90.20;;;;;;5071909;28;20101;-52
2023/07/12 13:54:38;;;;;;;9.57;2.22;;;23.80;90.30;;;;;;5072778;28;20048;-48
2023/07/12 13:57:05;;;;;;;6.13;1.70;;;23.80;89.60;;;;;;5072152;28;20116;-46
2023/07/12 13:59:35;;;;;;;7.05;1.63;;;23.80;89.40;;;;;;5072595;28;20171;-51
2023/07/12 14:02:03;;;;;;;5.85;1.70;;;23.90;89.90;;;;;;5071841;28;20048;-47
2023/07/12 14:04:32;;;;;;;10.48;1.85;;;23.90;90.10;;;;;;5072754;28;20491;-48
2023/07/12 14:07:03;;;;;;;4.28;1.20;;;23.90;89.30;;;;;;5071925;28;20052;-48
2023/07/12 14:09:50;;;;;;;6.63;1.60;;;24.00;88.70;;;;;;5072650;28;20392;-53
2023/07/12 14:12:37;;;;;;;3.83;1.50;;;24.10;89.00;;;;;;5073659;28;20040;-52
2023/07/12 14:15:04;;;;;;;5.03;1.67;;;24.20;87.60;;;;;;5076259;28;20407;-46
2023/07/12 14:17:32;;;;;;;3.50;1.50;;;24.10;87.80;;;;;;5076407;28;20036;-48
2023/07/12 14:19:59;;;;;;;6.28;1.30;;;24.10;88.10;;;;;;5075511;28;20468;-51
2023/07/12 14:22:25;;;;;;;7.47;1.45;;;24.10;87.90;;;;;;5076091;28;20492;-48
2023/07/12 14:24:53;;;;;;;3.60;1.20;;;24.10;88.00;;;;;;5076101;28;20071;-51
2023/07/12 14:27:20;;;;;;;5.55;1.58;;;24.20;87.90;;;;;;5075645;28;20443;-50
2023/07/12 14:29:47;;;;;;;4.78;1.50;;;24.20;87.90;;;;;;5073403;28;20040;-51
2023/07/12 14:32:17;;;;;;;5.38;1.30;;;24.30;88.20;;;;;;5075820;28;20040;-48
2023/07/12 14:34:43;;;;;;;8.23;1.58;;;24.30;88.60;;;;;;5075901;28;20058;-48
2023/07/12 14:37:10;;;;;;;9.15;1.98;;;24.40;89.20;;;;;;5075068;28;20106;-48
2023/07/12 14:39:37;;;;;;;8.18;1.48;;;24.40;88.90;;;;;;5074381;28;20103;-49
2023/07/12 14:42:04;;;;;;;6.45;1.48;;;24.40;88.90;;;;;;5050111;28;20079;-48
2023/07/12 14:44:31;;;;;;;7.90;2.05;;;24.30;89.10;;;;;;5075649;28;20456;-51
2023/07/12 14:46:57;;;;;;;4.78;1.55;;;24.10;89.80;;;;;;5074948;28;20088;-51
2023/07/12 14:49:24;;;;;;;6.13;1.58;;;24.00;90.00;;;;;;5075426;28;20472;-48
2023/07/12 14:51:51;;;;;;;6.63;1.80;;;23.90;90.20;;;;;;5073244;28;20051;-49
2023/07/12 14:54:35;;;;;;;7.50;1.85;;;23.80;90.40;;;;;;5075106;28;20044;-47
2023/07/12 14:57:22;;;;;;;7.43;1.98;;;23.80;90.50;;;;;;5075529;28;20051;-50
2023/07/12 15:00:10;;;;;;;7.65;1.90;;;23.80;90.80;;;;;;5075064;28;20394;-51
2023/07/12 15:02:38;;;;;;;10.65;2.38;;;23.70;91.00;;;;;;5075172;28;20049;-48
2023/07/12 15:05:06;;;;;;;13.13;2.15;;;23.60;91.20;;;;;;5075388;28;20098;-54
2023/07/12 15:07:34;;;;;;;6.82;1.73;;;23.50;91.60;;;;;;5072949;28;20044;-47
2023/07/12 15:10:01;;;;;;;6.43;1.63;;;23.40;91.40;;;;;;5074678;28;20048;-47